Hauptseite
METAR-TAF:

METAR-TAF

Flughäfen :

London Southend Airport

London-Southend, England

Breite: 51-34N, Länge: 000-42E, Höhe: 15 m

Beobachtung

Neuester Wetterbericht von vor 30 Minuten, um 06:20 UTC
Wind 6 kt aus Nordost
Temperatur 15°C
Luftfeuchtigkeit 88%
Luftdruck 1022 hPa
Sichtweite 10 km oder mehr
keine Wolken unter 1500 m und keine Kumulonimbus oder Gewitterwolken

METAR: EGMC 310620Z 04006KT CAVOK 15/13 Q1022

Zeit: 07:50 (06:50 UTC)

Prognose

Neuester Wetterbericht von vor 4 Stunden und 51 Minuten, um 01:59 UTC
Gültige Prognose vom 31 um 03 UTC bis 31 um 12 UTC
Wind 6 kt aus Nord/Nordost
Sichtweite 10 km oder mehr
keine Wolken unter 1500 m und keine Kumulonimbus oder Gewitterwolken
Übergehend zu
vom 31 um 09 UTC bis 31 um 12 UTC
Wind 12 kt aus Ost

TAF: EGMC 310159Z 3103/3112 03006KT CAVOK BECMG 3109/3112 09012KT

Wetterbeobachtungen und Prognosen von mehr als 4000 Flughäfen (METAR und TAF Bericht).

Die verfügbaren Stationen werden durch gelbe und rote Markierungen auf der Karte dargestellt.

Führen Sie die Maus auf sie, um den Namen der Station zu sehen.

Darauf klicken, um die Beobachtung von Wetterbeobachtungen und Prognosen zu sehen.

Um die Karte zu ändern : klicken Sie auf den grünen Tasten mit einem schwarzen Kreuz Zum Vergrößern, auf den grünen Button mit einem Gedankenstrich zu verkleinern, oder auf die grünen Pfeile für benachbarte Karten.


METAR-TAF: